createdAt,value
2024-03-08T00:00:14.804Z,27.93
2024-03-08T00:03:03.870Z,27.60
2024-03-08T00:05:31.204Z,28.77
2024-03-08T00:07:58.522Z,28.97
2024-03-08T00:10:28.305Z,25.43
2024-03-08T00:12:56.146Z,26.40
2024-03-08T00:15:24.336Z,25.57
2024-03-08T00:17:51.665Z,25.90
2024-03-08T00:20:21.616Z,25.17
2024-03-08T00:22:48.856Z,25.67
2024-03-08T00:25:16.101Z,25.93
2024-03-08T00:27:43.467Z,29.57
2024-03-08T00:30:12.163Z,36.03
2024-03-08T00:32:39.783Z,32.57
2024-03-08T00:35:09.529Z,28.53
2024-03-08T00:37:37.031Z,30.50
2024-03-08T00:40:04.348Z,33.73
2024-03-08T00:42:31.473Z,34.03
2024-03-08T00:44:59.360Z,34.00
2024-03-08T00:47:27.497Z,33.87
2024-03-08T00:49:54.571Z,50.70
2024-03-08T00:52:22.222Z,45.83
2024-03-08T00:54:51.996Z,41.97
2024-03-08T00:57:19.237Z,38.37
2024-03-08T00:59:46.616Z,38.70
2024-03-08T01:02:13.839Z,38.67
2024-03-08T01:04:40.638Z,38.40
2024-03-08T01:07:07.824Z,38.50
2024-03-08T01:09:34.634Z,35.67
2024-03-08T01:12:02.553Z,37.83
2024-03-08T01:14:32.387Z,36.47
2024-03-08T01:17:00.415Z,37.57
2024-03-08T01:19:27.447Z,36.03
2024-03-08T01:21:56.977Z,36.57
2024-03-08T01:24:24.252Z,34.40
2024-03-08T01:26:51.588Z,34.73
2024-03-08T01:29:18.589Z,34.27
2024-03-08T01:31:45.987Z,34.47
2024-03-08T01:34:12.933Z,35.00
2024-03-08T01:36:40.022Z,34.87
2024-03-08T01:39:09.610Z,33.47
2024-03-08T01:41:37.590Z,32.27
2024-03-08T01:44:04.881Z,31.80
2024-03-08T01:46:32.675Z,32.03
2024-03-08T01:49:01.936Z,34.47
2024-03-08T01:51:30.512Z,32.67
2024-03-08T01:53:58.998Z,31.83
2024-03-08T01:56:26.704Z,32.47
2024-03-08T01:58:53.986Z,32.03
2024-03-08T02:01:21.360Z,32.70
2024-03-08T02:03:48.330Z,33.97
2024-03-08T02:06:17.525Z,35.40
2024-03-08T02:08:46.211Z,35.57
2024-03-08T02:11:13.984Z,34.20
2024-03-08T02:13:40.945Z,34.97
2024-03-08T02:16:09.566Z,33.90
2024-03-08T02:18:36.939Z,33.13
2024-03-08T02:21:05.428Z,35.03
2024-03-08T02:23:33.375Z,35.80
2024-03-08T02:26:00.773Z,32.77
2024-03-08T02:28:27.626Z,32.63
2024-03-08T02:30:57.229Z,32.87
2024-03-08T02:33:25.525Z,33.37
2024-03-08T02:35:53.008Z,33.97
2024-03-08T02:38:21.385Z,33.60
2024-03-08T02:40:49.956Z,33.43
2024-03-08T02:43:18.754Z,34.77
2024-03-08T02:45:48.798Z,32.93
2024-03-08T02:48:17.536Z,33.60
2024-03-08T02:50:46.100Z,33.97
2024-03-08T02:53:13.825Z,33.40
2024-03-08T02:55:42.363Z,33.30
2024-03-08T02:58:11.637Z,31.83
2024-03-08T03:00:40.582Z,34.07
2024-03-08T03:03:08.977Z,31.10
2024-03-08T03:05:36.642Z,33.17
2024-03-08T03:08:05.338Z,34.70
2024-03-08T03:10:32.608Z,31.13
2024-03-08T03:12:59.510Z,32.30
2024-03-08T03:15:28.289Z,30.63
2024-03-08T03:17:56.632Z,31.40
2024-03-08T03:20:27.823Z,31.87
2024-03-08T03:22:55.147Z,36.53
2024-03-08T03:25:26.720Z,36.33
2024-03-08T03:27:57.679Z,35.33
2024-03-08T03:30:27.929Z,35.37
2024-03-08T03:32:56.168Z,33.37
2024-03-08T03:35:23.906Z,39.00
2024-03-08T03:38:07.552Z,37.30
2024-03-08T03:40:35.420Z,35.33
2024-03-08T03:43:04.072Z,35.53
2024-03-08T03:45:34.915Z,33.50
2024-03-08T03:48:10.560Z,33.23
2024-03-08T03:50:38.563Z,33.27
2024-03-08T03:53:10.510Z,33.80
2024-03-08T03:55:40.839Z,34.40
2024-03-08T03:58:11.448Z,34.93
2024-03-08T04:00:39.634Z,33.13
2024-03-08T04:03:07.406Z,36.23
2024-03-08T04:05:35.819Z,33.70
2024-03-08T04:08:04.074Z,35.13
2024-03-08T04:10:31.379Z,36.43
2024-03-08T04:12:58.559Z,36.47
2024-03-08T04:15:26.113Z,34.57
2024-03-08T04:17:53.913Z,34.50
2024-03-08T04:20:22.637Z,35.00
2024-03-08T04:22:50.938Z,34.00
2024-03-08T04:25:18.737Z,32.00
2024-03-08T04:27:46.806Z,31.97
2024-03-08T04:30:14.334Z,33.33
2024-03-08T04:32:42.702Z,34.03
2024-03-08T04:35:10.113Z,32.07
2024-03-08T04:37:37.554Z,34.40
2024-03-08T04:40:05.175Z,34.43
2024-03-08T04:42:34.091Z,33.37
2024-03-08T04:45:01.566Z,34.97
2024-03-08T04:47:28.841Z,35.27
2024-03-08T04:49:57.484Z,39.43
2024-03-08T04:52:24.616Z,40.87
2024-03-08T04:54:51.812Z,34.53
2024-03-08T04:57:20.142Z,31.97
2024-03-08T04:59:47.859Z,33.77
2024-03-08T05:02:14.880Z,34.33
2024-03-08T05:04:43.685Z,32.77
2024-03-08T05:07:11.152Z,32.67
2024-03-08T05:09:39.017Z,33.40
2024-03-08T05:12:06.310Z,32.57
2024-03-08T05:14:33.615Z,33.30
2024-03-08T05:17:01.512Z,34.80
2024-03-08T05:19:34.404Z,33.20
2024-03-08T05:22:02.079Z,36.23
2024-03-08T05:24:31.037Z,35.07
2024-03-08T05:26:57.989Z,35.23
2024-03-08T05:29:25.373Z,35.47
2024-03-08T05:31:56.026Z,36.33
2024-03-08T05:34:23.850Z,35.87
2024-03-08T05:36:52.041Z,35.03
2024-03-08T05:39:20.025Z,37.90
2024-03-08T05:41:49.810Z,36.83
2024-03-08T05:44:19.941Z,36.77
2024-03-08T05:46:49.384Z,35.70
2024-03-08T05:49:16.573Z,39.20
2024-03-08T05:51:44.048Z,47.83
2024-03-08T05:54:14.593Z,36.97
2024-03-08T05:56:44.499Z,42.93
2024-03-08T05:59:12.556Z,40.80
2024-03-08T06:01:41.948Z,42.57
2024-03-08T06:04:09.674Z,38.33
2024-03-08T06:06:38.888Z,39.63
2024-03-08T06:09:19.177Z,39.80
2024-03-08T06:11:46.445Z,39.53
2024-03-08T06:14:13.799Z,37.10
2024-03-08T06:16:40.640Z,37.83
2024-03-08T06:19:07.873Z,39.60
2024-03-08T06:21:34.743Z,35.83
2024-03-08T06:24:02.378Z,37.00
2024-03-08T06:26:30.836Z,37.13
2024-03-08T06:28:58.908Z,36.63
2024-03-08T06:31:25.931Z,41.73
2024-03-08T06:33:56.234Z,38.13
2024-03-08T06:36:23.978Z,38.53
2024-03-08T06:38:51.595Z,38.47
2024-03-08T06:41:18.537Z,36.33
2024-03-08T06:43:46.793Z,36.17
2024-03-08T06:46:14.104Z,37.13
2024-03-08T06:48:41.465Z,36.43
2024-03-08T06:51:08.906Z,35.27
2024-03-08T06:53:36.410Z,35.80
2024-03-08T06:56:03.590Z,35.83
2024-03-08T06:58:30.732Z,34.97
2024-03-08T07:01:02.046Z,35.00
2024-03-08T07:03:30.821Z,35.83
2024-03-08T07:06:02.836Z,34.43
2024-03-08T07:08:31.213Z,34.13
2024-03-08T07:10:59.729Z,33.80
2024-03-08T07:13:29.982Z,34.10
2024-03-08T07:15:57.176Z,34.57
2024-03-08T07:18:24.695Z,33.37
2024-03-08T07:20:51.870Z,31.90
2024-03-08T07:23:38.220Z,30.90
2024-03-08T07:26:05.428Z,30.97
2024-03-08T07:28:32.549Z,27.93
2024-03-08T07:31:14.240Z,30.77
2024-03-08T07:33:41.572Z,29.67
2024-03-08T07:36:09.598Z,33.17
2024-03-08T07:38:36.916Z,29.53
2024-03-08T07:41:05.813Z,31.13
2024-03-08T07:43:34.261Z,30.07
2024-03-08T07:46:01.275Z,33.37
2024-03-08T07:48:28.628Z,29.87
2024-03-08T07:50:55.616Z,44.47
2024-03-08T07:53:22.903Z,29.10
2024-03-08T07:55:49.723Z,28.70
2024-03-08T07:58:18.625Z,26.40
2024-03-08T08:00:45.507Z,27.87
2024-03-08T08:03:13.989Z,26.87
2024-03-08T08:05:40.927Z,25.73
2024-03-08T08:08:12.222Z,26.23
2024-03-08T08:10:39.752Z,26.40
2024-03-08T08:13:07.071Z,23.83
2024-03-08T08:15:35.598Z,23.73
2024-03-08T08:18:07.000Z,24.30
2024-03-08T08:20:34.530Z,22.37
2024-03-08T08:23:01.669Z,19.53
2024-03-08T08:25:28.798Z,20.60
2024-03-08T08:27:55.962Z,20.63
2024-03-08T08:30:23.058Z,22.53
2024-03-08T08:32:50.636Z,19.53
2024-03-08T08:35:19.549Z,18.23
2024-03-08T08:37:47.007Z,20.70
2024-03-08T08:40:19.233Z,17.83
2024-03-08T08:42:50.482Z,17.63
2024-03-08T08:45:23.171Z,18.20
2024-03-08T08:47:53.390Z,15.80
2024-03-08T08:50:26.889Z,17.30
2024-03-08T08:52:54.815Z,17.37
2024-03-08T08:55:22.868Z,21.63
2024-03-08T08:57:50.467Z,17.47
2024-03-08T09:00:17.760Z,16.33
2024-03-08T09:02:44.812Z,15.30
2024-03-08T09:05:17.886Z,12.60
2024-03-08T09:07:48.428Z,13.73
2024-03-08T09:10:17.710Z,16.20
2024-03-08T09:12:45.910Z,16.30
2024-03-08T09:15:13.667Z,13.17
2024-03-08T09:17:41.910Z,11.43
2024-03-08T09:20:10.176Z,11.90
2024-03-08T09:22:37.270Z,12.40
2024-03-08T09:25:07.014Z,12.50
2024-03-08T09:27:37.687Z,11.43
2024-03-08T09:30:08.399Z,10.63
2024-03-08T09:32:35.624Z,12.43
2024-03-08T09:35:03.046Z,11.73
2024-03-08T09:37:30.177Z,9.93
2024-03-08T09:39:58.636Z,11.27
2024-03-08T09:42:25.487Z,9.17
2024-03-08T09:44:52.658Z,9.67
2024-03-08T09:47:19.569Z,9.47
2024-03-08T09:49:47.364Z,9.63
2024-03-08T09:52:14.539Z,9.67
2024-03-08T09:54:44.270Z,10.30
2024-03-08T09:57:11.624Z,9.53
2024-03-08T09:59:38.749Z,9.97
2024-03-08T10:02:06.324Z,8.40
2024-03-08T10:04:34.107Z,12.47
2024-03-08T10:07:02.633Z,11.43
2024-03-08T10:09:31.454Z,9.27
2024-03-08T10:11:59.066Z,9.67
2024-03-08T10:14:29.633Z,11.23
2024-03-08T10:17:01.128Z,13.17
2024-03-08T10:19:31.290Z,9.40
2024-03-08T10:22:00.163Z,10.00
2024-03-08T10:24:27.710Z,10.17
2024-03-08T10:26:55.629Z,10.20
2024-03-08T10:29:23.176Z,9.87
2024-03-08T10:31:51.309Z,10.63
2024-03-08T10:34:18.557Z,11.00
2024-03-08T10:36:45.396Z,11.60
2024-03-08T10:39:25.593Z,11.57
2024-03-08T10:41:58.816Z,10.43
2024-03-08T10:44:32.350Z,10.40
2024-03-08T10:47:20.360Z,9.13
2024-03-08T10:50:14.338Z,10.27
2024-03-08T10:52:41.607Z,8.87
2024-03-08T10:55:13.798Z,11.30
2024-03-08T10:57:42.593Z,9.77
2024-03-08T11:00:12.669Z,9.23
2024-03-08T11:02:39.552Z,10.40
2024-03-08T11:05:14.088Z,9.87
2024-03-08T11:07:44.190Z,11.37
2024-03-08T11:10:21.443Z,11.27
2024-03-08T11:12:49.537Z,10.38
2024-03-08T11:15:20.089Z,9.97
2024-03-08T11:17:49.347Z,10.27
2024-03-08T11:20:19.005Z,10.73
2024-03-08T11:22:57.084Z,10.33
2024-03-08T11:25:46.953Z,10.63
2024-03-08T11:28:22.059Z,10.87
2024-03-08T11:31:01.587Z,8.60
2024-03-08T11:33:30.022Z,10.82
2024-03-08T11:36:06.834Z,9.55
2024-03-08T11:38:41.822Z,8.70
2024-03-08T11:41:09.415Z,8.33
2024-03-08T11:43:36.809Z,9.80
2024-03-08T11:46:10.816Z,8.23
2024-03-08T11:48:37.643Z,9.13
2024-03-08T11:51:06.072Z,9.10
2024-03-08T11:53:32.995Z,8.80
2024-03-08T11:56:13.523Z,8.33
2024-03-08T11:58:41.554Z,8.53
2024-03-08T12:01:13.484Z,9.07
2024-03-08T12:03:44.097Z,8.63
2024-03-08T12:06:17.036Z,8.77
2024-03-08T12:08:43.963Z,8.25
2024-03-08T12:11:11.526Z,8.30
2024-03-08T12:13:38.929Z,7.45
2024-03-08T12:16:06.481Z,8.25
2024-03-08T12:18:39.146Z,8.57
2024-03-08T12:21:10.271Z,8.18
2024-03-08T12:23:38.116Z,8.45
2024-03-08T12:26:16.954Z,8.13
2024-03-08T12:28:48.374Z,8.53
2024-03-08T12:31:18.502Z,9.00
2024-03-08T12:33:57.099Z,8.02
2024-03-08T12:36:25.136Z,7.38
2024-03-08T12:38:52.434Z,8.40
2024-03-08T12:41:21.048Z,7.82
2024-03-08T12:43:51.295Z,8.57
2024-03-08T12:46:21.318Z,8.27
2024-03-08T12:48:48.663Z,7.30
2024-03-08T12:51:19.845Z,8.00
2024-03-08T12:53:51.814Z,7.88
2024-03-08T12:56:30.870Z,7.68
2024-03-08T12:58:58.036Z,7.55
2024-03-08T13:01:25.405Z,7.70
2024-03-08T13:03:52.360Z,9.02
2024-03-08T13:06:25.874Z,7.00
2024-03-08T13:08:53.468Z,8.57
2024-03-08T13:11:21.344Z,7.95
2024-03-08T13:13:48.555Z,11.00
2024-03-08T13:16:18.556Z,12.45
2024-03-08T13:18:46.620Z,6.60
2024-03-08T13:21:15.114Z,7.35
2024-03-08T13:23:46.411Z,7.40
2024-03-08T13:26:17.401Z,9.07
2024-03-08T13:28:47.443Z,7.70
2024-03-08T13:31:16.067Z,7.95
2024-03-08T13:33:43.473Z,8.35
2024-03-08T13:36:16.151Z,8.13
2024-03-08T13:38:44.673Z,8.60
2024-03-08T13:41:21.652Z,8.40
2024-03-08T13:43:51.820Z,7.82
2024-03-08T13:46:19.089Z,8.27
2024-03-08T13:48:45.979Z,9.10
2024-03-08T13:51:16.616Z,8.48
2024-03-08T13:53:43.687Z,7.60
2024-03-08T13:56:11.868Z,6.80
2024-03-08T13:58:41.340Z,8.27
2024-03-08T14:01:13.097Z,7.80
2024-03-08T14:03:43.917Z,9.45
2024-03-08T14:08:54.572Z,8.93
2024-03-08T14:11:21.594Z,8.93
2024-03-08T14:13:49.037Z,10.55
2024-03-08T14:16:16.711Z,9.30
2024-03-08T14:18:44.243Z,9.05
2024-03-08T14:21:11.782Z,20.15
2024-03-08T14:23:43.999Z,9.32
2024-03-08T14:26:11.118Z,8.07
2024-03-08T14:28:40.279Z,10.70
2024-03-08T14:31:12.138Z,8.98
2024-03-08T14:33:40.145Z,9.00
2024-03-08T14:36:07.582Z,8.65
2024-03-08T14:38:36.229Z,18.20
2024-03-08T14:41:05.487Z,14.52
2024-03-08T14:43:33.361Z,11.80
2024-03-08T14:46:00.601Z,8.40
2024-03-08T14:48:28.395Z,8.88
2024-03-08T14:50:55.350Z,9.35
2024-03-08T14:53:22.726Z,9.88
2024-03-08T14:55:49.733Z,10.95
2024-03-08T14:58:17.072Z,10.50
2024-03-08T15:00:45.032Z,9.30
2024-03-08T15:03:18.108Z,12.00
2024-03-08T15:05:49.245Z,9.60
2024-03-08T15:08:21.337Z,9.82
2024-03-08T15:10:52.852Z,9.20
2024-03-08T15:13:24.297Z,13.13
2024-03-08T15:15:58.477Z,20.55
2024-03-08T15:18:27.449Z,15.55
2024-03-08T15:20:54.540Z,11.32
2024-03-08T15:23:21.925Z,11.75
2024-03-08T15:25:50.389Z,12.27
2024-03-08T15:28:21.259Z,13.75
2024-03-08T15:30:52.711Z,12.38
2024-03-08T15:33:25.567Z,12.52
2024-03-08T15:35:58.847Z,17.08
2024-03-08T15:38:28.761Z,15.02
2024-03-08T15:40:56.082Z,14.73
2024-03-08T15:43:23.538Z,16.70
2024-03-08T15:45:51.060Z,28.13
2024-03-08T15:48:18.328Z,22.13
2024-03-08T15:50:45.352Z,12.38
2024-03-08T15:53:16.635Z,11.07
2024-03-08T15:55:45.532Z,15.07
2024-03-08T15:58:14.400Z,18.02
2024-03-08T16:00:47.763Z,19.08
2024-03-08T16:03:16.200Z,17.30
2024-03-08T16:05:45.165Z,20.25
2024-03-08T16:08:16.931Z,19.85
2024-03-08T16:10:51.022Z,13.80
2024-03-08T16:13:19.424Z,12.18
2024-03-08T16:15:48.179Z,9.27
2024-03-08T16:18:17.702Z,8.87
2024-03-08T16:20:50.538Z,10.80
2024-03-08T16:23:17.773Z,15.23
2024-03-08T16:25:45.120Z,12.38
2024-03-08T16:28:13.266Z,11.05
2024-03-08T16:30:43.267Z,8.90
2024-03-08T16:33:10.878Z,11.37
2024-03-08T16:35:40.052Z,8.97
2024-03-08T16:38:08.705Z,9.77
2024-03-08T16:40:37.443Z,10.20
2024-03-08T16:43:04.865Z,11.17
2024-03-08T16:45:31.776Z,13.63
2024-03-08T16:48:00.224Z,12.70
2024-03-08T16:50:28.240Z,14.37
2024-03-08T16:52:57.836Z,12.77
2024-03-08T16:55:27.274Z,12.87
2024-03-08T16:57:54.769Z,12.07
2024-03-08T17:00:23.542Z,12.47
2024-03-08T17:02:51.101Z,15.77
2024-03-08T17:05:18.127Z,9.47
2024-03-08T17:07:49.919Z,11.23
2024-03-08T17:10:20.340Z,10.13
2024-03-08T17:12:50.852Z,9.80
2024-03-08T17:15:24.187Z,11.13
2024-03-08T17:17:57.471Z,22.40
2024-03-08T17:20:25.785Z,14.27
2024-03-08T17:22:55.336Z,17.57
2024-03-08T17:25:25.292Z,16.83
2024-03-08T17:27:56.852Z,15.17
2024-03-08T17:30:25.158Z,16.17
2024-03-08T17:33:00.289Z,21.37
2024-03-08T17:35:29.709Z,20.67
2024-03-08T17:37:58.043Z,13.80
2024-03-08T17:40:52.497Z,17.13
2024-03-08T17:43:24.330Z,12.73
2024-03-08T17:45:54.214Z,12.43
2024-03-08T17:48:22.228Z,11.67
2024-03-08T17:50:55.191Z,12.53
2024-03-08T17:53:22.625Z,12.37
2024-03-08T17:55:52.391Z,13.10
2024-03-08T17:58:21.304Z,12.50
2024-03-08T18:00:52.475Z,11.07
2024-03-08T18:03:20.824Z,11.13
2024-03-08T18:05:48.760Z,11.60
2024-03-08T18:08:19.412Z,11.60
2024-03-08T18:10:49.825Z,11.60
2024-03-08T18:13:17.729Z,12.20
2024-03-08T18:15:47.678Z,11.97
2024-03-08T18:18:15.661Z,11.83
2024-03-08T18:20:46.227Z,11.90
2024-03-08T18:23:14.652Z,12.00
2024-03-08T18:25:42.325Z,13.43
2024-03-08T18:28:10.531Z,10.90
2024-03-08T18:30:38.111Z,11.90
2024-03-08T18:33:06.103Z,11.73
2024-03-08T18:35:32.998Z,12.67
2024-03-08T18:38:00.359Z,14.20
2024-03-08T18:40:27.561Z,15.23
2024-03-08T18:42:55.294Z,11.10
2024-03-08T18:45:23.564Z,12.07
2024-03-08T18:47:52.575Z,13.73
2024-03-08T18:50:21.687Z,19.63
2024-03-08T18:52:49.696Z,17.47
2024-03-08T18:55:22.547Z,16.80
2024-03-08T18:57:50.039Z,17.50
2024-03-08T19:00:50.937Z,25.17
2024-03-08T19:03:19.037Z,13.27
2024-03-08T19:05:50.553Z,11.83
2024-03-08T19:08:20.711Z,15.40
2024-03-08T19:10:48.777Z,12.47
2024-03-08T19:13:17.696Z,11.80
2024-03-08T19:15:46.689Z,10.77
2024-03-08T19:18:15.056Z,12.47
2024-03-08T19:20:42.434Z,11.03
2024-03-08T19:23:11.054Z,10.53
2024-03-08T19:25:42.591Z,12.83
2024-03-08T19:28:14.164Z,11.90
2024-03-08T19:30:41.717Z,15.30
2024-03-08T19:33:09.243Z,15.90
2024-03-08T19:35:37.158Z,14.80
2024-03-08T19:38:04.951Z,14.03
2024-03-08T19:40:36.066Z,13.33
2024-03-08T19:43:07.018Z,13.20
2024-03-08T19:45:34.303Z,12.17
2024-03-08T19:48:05.144Z,14.60
2024-03-08T19:50:33.926Z,14.10
2024-03-08T19:53:08.928Z,18.33
2024-03-08T19:55:37.581Z,21.57
2024-03-08T19:58:05.579Z,26.63
2024-03-08T20:00:35.920Z,26.03
2024-03-08T20:03:05.806Z,17.33
2024-03-08T20:05:35.744Z,15.60
2024-03-08T20:08:09.494Z,15.47
2024-03-08T20:10:38.227Z,14.73
2024-03-08T20:13:09.234Z,20.60
2024-03-08T20:15:41.482Z,15.43
2024-03-08T20:18:10.455Z,13.97
2024-03-08T20:20:38.462Z,13.73
2024-03-08T20:23:06.511Z,17.10
2024-03-08T20:25:37.180Z,26.47
2024-03-08T20:28:06.607Z,17.57
2024-03-08T20:30:33.760Z,16.47
2024-03-08T20:33:05.500Z,14.60
2024-03-08T20:35:37.042Z,17.90
2024-03-08T20:38:07.770Z,24.77
2024-03-08T20:40:43.389Z,19.00
2024-03-08T20:43:16.432Z,16.77
2024-03-08T20:45:45.074Z,13.97
2024-03-08T20:48:15.911Z,15.00
2024-03-08T20:50:43.874Z,13.73
2024-03-08T20:53:13.383Z,14.03
2024-03-08T20:55:41.465Z,14.40
2024-03-08T20:58:09.034Z,14.00
2024-03-08T21:00:41.263Z,14.30
2024-03-08T21:03:20.410Z,15.50
2024-03-08T21:05:51.503Z,15.63
2024-03-08T21:08:28.930Z,21.67
2024-03-08T21:10:56.910Z,40.73
2024-03-08T21:13:26.663Z,24.53
2024-03-08T21:15:54.408Z,18.37
2024-03-08T21:18:22.598Z,16.47
2024-03-08T21:20:50.061Z,21.33
2024-03-08T21:23:17.369Z,20.47
2024-03-08T21:25:44.708Z,15.10
2024-03-08T21:28:12.535Z,16.13
2024-03-08T21:30:40.602Z,17.63
2024-03-08T21:33:12.164Z,18.77
2024-03-08T21:35:40.594Z,19.57
2024-03-08T21:38:08.709Z,25.10
2024-03-08T21:40:52.965Z,27.80
2024-03-08T21:43:28.388Z,25.10
2024-03-08T21:45:55.744Z,21.03
2024-03-08T21:48:23.250Z,19.43
2024-03-08T21:50:51.229Z,28.17
2024-03-08T21:53:26.456Z,16.67
2024-03-08T21:55:58.206Z,20.20
2024-03-08T21:58:25.594Z,22.50
2024-03-08T22:00:53.832Z,26.57
2024-03-08T22:03:23.524Z,33.83
2024-03-08T22:05:51.642Z,43.67
2024-03-08T22:08:20.961Z,37.43
2024-03-08T22:10:48.175Z,25.27
2024-03-08T22:13:16.165Z,19.10
2024-03-08T22:15:46.163Z,63.50
2024-03-08T22:18:13.482Z,78.37
2024-03-08T22:20:40.976Z,72.37
2024-03-08T22:23:08.563Z,61.53
2024-03-08T22:25:37.698Z,46.77
2024-03-08T22:28:05.474Z,64.60
2024-03-08T22:30:32.630Z,40.03
2024-03-08T22:32:59.850Z,210.47
2024-03-08T22:35:29.113Z,152.73
2024-03-08T22:37:56.387Z,83.67
2024-03-08T22:40:25.962Z,80.27
2024-03-08T22:42:54.154Z,53.40
2024-03-08T22:45:21.320Z,21.77
2024-03-08T22:47:48.711Z,38.90
2024-03-08T22:50:17.517Z,32.47
2024-03-08T22:52:46.228Z,27.77
2024-03-08T22:55:20.226Z,37.63
2024-03-08T22:57:49.655Z,48.00
2024-03-08T23:00:27.512Z,34.83
2024-03-08T23:02:57.653Z,26.20
2024-03-08T23:05:28.340Z,24.10
2024-03-08T23:08:00.864Z,23.50
2024-03-08T23:10:28.977Z,43.07
2024-03-08T23:12:57.491Z,42.63
2024-03-08T23:15:29.176Z,49.53
2024-03-08T23:17:57.318Z,24.93
2024-03-08T23:20:33.029Z,23.00
2024-03-08T23:23:05.375Z,23.37
2024-03-08T23:25:33.797Z,29.60
2024-03-08T23:28:01.742Z,33.67
2024-03-08T23:30:29.530Z,31.20
2024-03-08T23:32:56.903Z,23.73
2024-03-08T23:35:23.816Z,65.80
2024-03-08T23:37:51.749Z,55.57
2024-03-08T23:40:20.194Z,49.27
2024-03-08T23:42:48.621Z,40.80
2024-03-08T23:45:21.607Z,69.50
2024-03-08T23:47:56.634Z,38.57
2024-03-08T23:50:31.098Z,29.23
2024-03-08T23:53:01.273Z,21.83
2024-03-08T23:55:34.080Z,24.03
2024-03-08T23:58:11.024Z,26.60
